createdAt,value
2018-09-23T00:00:14.401Z,23.4
2018-09-23T00:01:03.634Z,23.4
2018-09-23T00:01:54.849Z,23.4
2018-09-23T00:02:44.593Z,23.4
2018-09-23T00:03:34.671Z,23.4
2018-09-23T00:04:24.689Z,23.4
2018-09-23T00:05:15.361Z,23.4
2018-09-23T00:06:04.864Z,23.4
2018-09-23T00:06:54.671Z,23.4
2018-09-23T00:07:45.288Z,23.4
2018-09-23T00:08:35.324Z,23.4
2018-09-23T00:09:24.561Z,23.4
2018-09-23T00:10:15.154Z,23.4
2018-09-23T00:11:04.678Z,23.4
2018-09-23T00:11:55.591Z,23.4
2018-09-23T00:12:45.640Z,23.4
2018-09-23T00:13:35.394Z,23.4
2018-09-23T00:14:25.766Z,23.4
2018-09-23T00:15:15.893Z,23.4
2018-09-23T00:16:05.586Z,23.4
2018-09-23T00:16:55.385Z,23.4
2018-09-23T00:17:45.992Z,23.4
2018-09-23T00:18:36.367Z,23.4
2018-09-23T00:19:25.898Z,23.4
2018-09-23T00:20:15.646Z,23.4
2018-09-23T00:21:05.748Z,23.4
2018-09-23T00:21:56.053Z,23.4
2018-09-23T00:22:46.135Z,23.4
2018-09-23T00:23:36.523Z,23.4
2018-09-23T00:24:25.777Z,23.4
2018-09-23T00:25:16.295Z,23.4
2018-09-23T00:26:06.320Z,23.4
2018-09-23T00:26:56.720Z,23.4
2018-09-23T00:27:47.090Z,23.4
2018-09-23T00:28:36.820Z,23.4
2018-09-23T00:29:26.052Z,23.4
2018-09-23T00:30:15.828Z,23.4
2018-09-23T00:31:06.563Z,23.4
2018-09-23T00:31:56.804Z,23.4
2018-09-23T00:32:46.890Z,23.4
2018-09-23T00:33:36.419Z,23.4
2018-09-23T00:34:26.144Z,23.4
2018-09-23T00:35:17.712Z,23.4
2018-09-23T00:36:07.778Z,23.4
2018-09-23T00:36:56.635Z,23.4
2018-09-23T00:56:02.269Z,23.4
2018-09-23T00:56:52.106Z,23.4
2018-09-23T00:57:42.448Z,23.4
2018-09-23T00:58:32.901Z,23.4
2018-09-23T00:59:22.986Z,23.4
2018-09-23T01:00:12.680Z,23.4
2018-09-23T01:01:02.965Z,23.4
2018-09-23T01:01:52.520Z,23.4
2018-09-23T01:02:43.132Z,23.4
2018-09-23T01:03:32.902Z,23.4
2018-09-23T01:04:23.227Z,23.4
2018-09-23T01:05:13.017Z,23.4
2018-09-23T01:06:03.909Z,23.4
2018-09-23T01:06:53.380Z,23.4
2018-09-23T01:07:43.264Z,23.4
2018-09-23T01:08:33.284Z,23.4
2018-09-23T01:09:23.332Z,23.4
2018-09-23T01:10:13.473Z,23.4
2018-09-23T01:11:04.402Z,23.4
2018-09-23T01:11:52.929Z,23.4
2018-09-23T01:12:43.868Z,23.4
2018-09-23T01:13:34.156Z,23.4
2018-09-23T01:14:23.695Z,23.4
2018-09-23T01:15:13.519Z,23.4
2018-09-23T01:16:03.259Z,23.4
2018-09-23T01:16:54.488Z,23.4
2018-09-23T01:17:43.941Z,23.4
2018-09-23T01:18:33.434Z,23.4
2018-09-23T01:19:24.076Z,23.4
2018-09-23T01:20:13.846Z,23.4
2018-09-23T01:21:04.189Z,23.4
2018-09-23T01:21:54.828Z,23.4
2018-09-23T01:22:44.360Z,23.4
2018-09-23T01:23:34.413Z,23.4
2018-09-23T01:24:24.498Z,23.4
2018-09-23T01:25:14.039Z,23.4
2018-09-23T01:26:04.951Z,23.4
2018-09-23T01:26:55.051Z,23.4
2018-09-23T01:27:44.693Z,23.4
2018-09-23T01:28:34.521Z,23.4
2018-09-23T01:29:24.525Z,23.4
2018-09-23T01:30:14.911Z,23.4
2018-09-23T01:31:05.037Z,23.4
2018-09-23T01:31:55.368Z,23.4
2018-09-23T01:32:45.412Z,23.4
2018-09-23T01:33:35.435Z,23.4
2018-09-23T01:34:25.514Z,23.4
2018-09-23T01:35:15.083Z,23.4
2018-09-23T01:36:05.060Z,23.4
2018-09-23T01:36:54.563Z,23.4
2018-09-23T01:37:45.220Z,23.4
2018-09-23T01:38:34.700Z,23.4
2018-09-23T01:39:25.613Z,23.4
2018-09-23T01:40:15.150Z,23.4
2018-09-23T01:41:05.762Z,23.4
2018-09-23T01:41:55.945Z,23.4
2018-09-23T01:42:45.925Z,23.4
2018-09-23T01:43:35.935Z,23.4
2018-09-23T01:44:25.967Z,23.4
2018-09-23T01:45:16.322Z,23.4
2018-09-23T01:46:06.103Z,23.4
2018-09-23T01:46:56.701Z,23.4
2018-09-23T01:47:46.225Z,23.4
2018-09-23T01:48:36.585Z,23.4
2018-09-23T01:49:26.122Z,23.4
2018-09-23T01:50:16.407Z,23.4
2018-09-23T01:51:05.630Z,23.4
2018-09-23T01:51:56.824Z,23.4
2018-09-23T01:52:46.073Z,23.4
2018-09-23T01:53:37.200Z,23.4
2018-09-23T01:54:26.732Z,23.4
2018-09-23T01:55:16.798Z,23.4
2018-09-23T01:56:06.282Z,23.4
2018-09-23T01:56:56.336Z,23.4
2018-09-23T01:57:47.589Z,23.4
2018-09-23T01:58:37.460Z,23.4
2018-09-23T01:59:26.537Z,23.4
2018-09-23T02:00:16.657Z,23.4
2018-09-23T02:01:07.239Z,23.4
2018-09-23T02:01:57.014Z,23.4
2018-09-23T02:02:47.334Z,23.4
2018-09-23T02:03:37.438Z,23.3
2018-09-23T02:04:26.942Z,23.4
2018-09-23T02:05:17.546Z,23.3
2018-09-23T02:06:07.060Z,23.3
2018-09-23T02:06:57.401Z,23.4
2018-09-23T02:07:48.641Z,23.3
2018-09-23T02:08:38.457Z,23.3
2018-09-23T02:09:27.298Z,23.3
2018-09-23T02:10:17.631Z,23.3
2018-09-23T02:11:08.273Z,23.3
2018-09-23T02:11:58.065Z,23.3
2018-09-23T02:12:48.793Z,23.3
2018-09-23T02:13:37.338Z,23.3
2018-09-23T02:14:28.007Z,23.3
2018-09-23T02:15:18.302Z,23.3
2018-09-23T02:16:08.402Z,23.3
2018-09-23T02:16:58.410Z,23.3
2018-09-23T02:17:49.043Z,23.3
2018-09-23T02:18:38.312Z,23.3
2018-09-23T02:19:28.673Z,23.3
2018-09-23T02:20:18.720Z,23.3
2018-09-23T02:21:08.606Z,23.4
2018-09-23T02:21:58.239Z,23.3
2018-09-23T02:22:48.560Z,23.3
2018-09-23T02:23:39.412Z,23.3
2018-09-23T02:24:28.707Z,23.3
2018-09-23T02:25:18.790Z,23.4
2018-09-23T02:26:09.187Z,23.3
2018-09-23T02:26:58.912Z,23.3
2018-09-23T02:27:48.710Z,23.3
2018-09-23T02:28:38.998Z,23.3
2018-09-23T02:29:28.810Z,23.3
2018-09-23T02:30:19.505Z,23.3
2018-09-23T02:31:09.795Z,23.3
2018-09-23T02:31:59.907Z,23.3
2018-09-23T02:32:49.310Z,23.3
2018-09-23T02:33:39.107Z,23.3
2018-09-23T02:34:29.777Z,23.3
2018-09-23T02:35:19.530Z,23.3
2018-09-23T02:36:09.900Z,23.3
2018-09-23T02:36:59.699Z,23.3
2018-09-23T02:37:49.741Z,23.3
2018-09-23T02:38:40.041Z,23.3
2018-09-23T02:39:30.156Z,23.3
2018-09-23T02:40:19.920Z,23.3
2018-09-23T02:41:10.031Z,23.3
2018-09-23T02:42:00.655Z,23.3
2018-09-23T02:42:50.164Z,23.3
2018-09-23T02:43:40.213Z,23.3
2018-09-23T02:44:30.513Z,23.3
2018-09-23T02:45:19.768Z,23.3
2018-09-23T02:46:10.095Z,23.3
2018-09-23T02:47:00.413Z,23.3
2018-09-23T02:47:50.201Z,23.3
2018-09-23T02:48:40.806Z,23.3
2018-09-23T02:49:31.188Z,23.3
2018-09-23T02:50:21.228Z,23.3
2018-09-23T02:51:11.027Z,23.3
2018-09-23T02:52:01.101Z,23.3
2018-09-23T02:52:50.626Z,23.3
2018-09-23T02:53:41.171Z,23.3
2018-09-23T02:54:31.321Z,23.3
2018-09-23T02:55:21.103Z,23.3
2018-09-23T02:56:11.393Z,23.3
2018-09-23T02:57:01.193Z,23.3
2018-09-23T02:57:50.960Z,23.3
2018-09-23T02:58:41.582Z,23.3
2018-09-23T02:59:31.119Z,23.3
2018-09-23T03:00:22.045Z,23.3
2018-09-23T03:01:11.556Z,23.3
2018-09-23T03:02:01.832Z,23.3
2018-09-23T03:02:51.904Z,23.3
2018-09-23T03:03:42.590Z,23.3
2018-09-23T03:04:32.103Z,23.3
2018-09-23T03:05:21.887Z,23.3
2018-09-23T03:06:11.885Z,23.3
2018-09-23T03:07:02.230Z,23.3
2018-09-23T03:07:52.573Z,23.3
2018-09-23T03:08:42.333Z,23.3
2018-09-23T03:09:32.696Z,23.3
2018-09-23T03:10:22.194Z,23.3
2018-09-23T03:11:11.712Z,23.3
2018-09-23T03:12:02.310Z,23.3
2018-09-23T03:12:52.955Z,23.3
2018-09-23T03:13:42.450Z,23.3
2018-09-23T03:14:32.749Z,23.3
2018-09-23T03:15:22.884Z,23.3
2018-09-23T03:16:12.930Z,23.3
2018-09-23T03:17:03.324Z,23.3
2018-09-23T03:17:52.845Z,23.3
2018-09-23T03:18:42.835Z,23.3
2018-09-23T03:19:33.173Z,23.3
2018-09-23T03:20:22.680Z,23.3
2018-09-23T03:21:13.059Z,23.3
2018-09-23T03:22:03.426Z,23.3
2018-09-23T03:22:52.896Z,23.3
2018-09-23T03:23:43.240Z,23.3
2018-09-23T03:24:34.117Z,23.3
2018-09-23T03:25:24.402Z,23.3
2018-09-23T03:26:13.738Z,23.3
2018-09-23T03:27:03.159Z,23.3
2018-09-23T03:27:53.842Z,23.3
2018-09-23T03:28:43.941Z,23.3
2018-09-23T03:29:34.255Z,23.3
2018-09-23T03:30:25.442Z,23.3
2018-09-23T03:31:13.978Z,23.3
2018-09-23T03:32:03.950Z,23.3
2018-09-23T03:32:54.223Z,23.3
2018-09-23T03:33:44.246Z,23.3
2018-09-23T03:34:34.350Z,23.3
2018-09-23T03:35:24.670Z,23.3
2018-09-23T03:36:14.391Z,23.3
2018-09-23T03:37:03.945Z,23.3
2018-09-23T03:37:54.264Z,23.3
2018-09-23T03:38:44.616Z,23.3
2018-09-23T03:39:34.708Z,23.3
2018-09-23T03:40:25.263Z,23.3
2018-09-23T03:41:14.563Z,23.3
2018-09-23T03:42:04.882Z,23.3
2018-09-23T03:42:55.225Z,23.3
2018-09-23T03:43:44.995Z,23.3
2018-09-23T03:44:34.870Z,23.3
2018-09-23T03:45:25.622Z,23.3
2018-09-23T03:46:14.685Z,23.3
2018-09-23T03:47:04.124Z,23.3
2018-09-23T03:47:55.358Z,23.3
2018-09-23T03:48:45.124Z,23.3
2018-09-23T03:49:35.715Z,23.3
2018-09-23T03:50:25.184Z,23.3
2018-09-23T03:51:15.788Z,23.3
2018-09-23T03:52:05.904Z,23.3
2018-09-23T03:52:55.678Z,23.3
2018-09-23T03:53:45.452Z,23.3
2018-09-23T03:54:36.105Z,23.3
2018-09-23T03:55:26.409Z,23.3
2018-09-23T03:56:16.224Z,23.3
2018-09-23T03:57:06.289Z,23.3
2018-09-23T03:57:55.853Z,23.3
2018-09-23T03:58:46.437Z,23.3
2018-09-23T03:59:35.912Z,23.3
2018-09-23T04:00:26.782Z,23.2
2018-09-23T04:01:17.464Z,23.3
2018-09-23T04:02:05.570Z,23.2
2018-09-23T04:02:56.470Z,23.2
2018-09-23T04:03:45.349Z,23.3
2018-09-23T04:04:36.014Z,23.3
2018-09-23T04:05:27.215Z,23.2
2018-09-23T04:06:15.511Z,23.2
2018-09-23T04:07:06.489Z,23.2
2018-09-23T04:07:57.129Z,23.2
2018-09-23T04:08:46.929Z,23.2
2018-09-23T04:09:36.689Z,23.2
2018-09-23T04:10:26.159Z,23.2
2018-09-23T04:11:17.017Z,23.2
2018-09-23T04:12:07.564Z,23.3
2018-09-23T04:12:56.910Z,23.2
2018-09-23T04:13:47.261Z,23.2
2018-09-23T04:14:37.011Z,23.2
2018-09-23T04:15:26.804Z,23.3
2018-09-23T04:16:16.946Z,23.3
2018-09-23T04:17:07.801Z,23.3
2018-09-23T04:17:56.997Z,23.3
2018-09-23T04:18:47.963Z,23.3
2018-09-23T04:19:37.722Z,23.2
2018-09-23T04:20:27.769Z,23.3
2018-09-23T04:21:17.495Z,23.3
2018-09-23T04:22:08.487Z,23.3
2018-09-23T04:22:58.235Z,23.3
2018-09-23T04:23:47.720Z,23.3
2018-09-23T04:24:37.783Z,23.3
2018-09-23T04:25:28.137Z,23.2
2018-09-23T04:26:18.185Z,23.2
2018-09-23T04:27:08.611Z,23.2
2018-09-23T04:27:58.590Z,23.2
2018-09-23T04:28:48.375Z,23.2
2018-09-23T04:29:38.445Z,23.2
2018-09-23T04:30:28.030Z,23.2
2018-09-23T04:31:18.606Z,23.2
2018-09-23T04:32:09.233Z,23.2
2018-09-23T04:32:58.162Z,23.2
2018-09-23T04:33:48.778Z,23.2
2018-09-23T04:34:37.967Z,23.2
2018-09-23T04:35:28.922Z,23.3
2018-09-23T04:36:18.939Z,23.2
2018-09-23T04:37:09.262Z,23.2
2018-09-23T04:37:58.476Z,23.3
2018-09-23T04:38:49.149Z,23.2
2018-09-23T04:39:38.632Z,23.2
2018-09-23T04:40:28.998Z,23.2
2018-09-23T04:41:19.023Z,23.2
2018-09-23T04:42:09.684Z,23.2
2018-09-23T04:42:59.154Z,23.2
2018-09-23T04:43:49.239Z,23.2
2018-09-23T04:44:39.279Z,23.2
2018-09-23T04:45:29.657Z,23.2
2018-09-23T04:46:19.728Z,23.2
2018-09-23T04:47:09.774Z,23.2
2018-09-23T04:48:00.449Z,23.2
2018-09-23T04:48:49.962Z,23.2
2018-09-23T04:49:39.375Z,23.2
2018-09-23T04:50:30.320Z,23.2
2018-09-23T04:51:19.507Z,23.2
2018-09-23T04:52:10.424Z,23.2
2018-09-23T04:53:01.652Z,23.2
2018-09-23T04:53:50.300Z,23.2
2018-09-23T04:54:39.764Z,23.2
2018-09-23T04:55:30.690Z,23.2
2018-09-23T04:56:20.275Z,23.2
2018-09-23T04:57:10.530Z,23.2
2018-09-23T04:58:00.525Z,23.2
2018-09-23T04:58:50.896Z,23.2
2018-09-23T04:59:40.717Z,23.3
2018-09-23T05:00:30.747Z,23.3
2018-09-23T05:01:20.828Z,23.3
2018-09-23T05:02:10.921Z,23.3
2018-09-23T05:03:00.965Z,23.3
2018-09-23T05:03:51.056Z,23.3
2018-09-23T05:04:40.794Z,23.3
2018-09-23T05:05:31.132Z,23.3
2018-09-23T05:06:21.164Z,23.3
2018-09-23T05:07:11.288Z,23.3
2018-09-23T05:24:58.219Z,23.3
2018-09-23T05:25:47.477Z,23.3
2018-09-23T05:26:37.521Z,23.3
2018-09-23T05:27:27.107Z,23.3
2018-09-23T05:28:17.898Z,23.3
2018-09-23T05:29:07.090Z,23.3
2018-09-23T05:29:58.577Z,23.3
2018-09-23T05:30:48.369Z,23.3
2018-09-23T05:31:38.185Z,23.3
2018-09-23T05:32:28.209Z,23.3
2018-09-23T05:33:18.287Z,23.3
2018-09-23T05:34:08.345Z,23.3
2018-09-23T05:34:58.947Z,23.3
2018-09-23T05:35:48.191Z,23.3
2018-09-23T05:36:38.807Z,23.3
2018-09-23T05:37:28.308Z,23.3
2018-09-23T05:38:18.652Z,23.3
2018-09-23T05:39:08.722Z,23.3
2018-09-23T05:39:59.305Z,23.3
2018-09-23T05:40:49.076Z,23.3
2018-09-23T05:41:38.655Z,23.3
2018-09-23T05:42:29.232Z,23.3
2018-09-23T05:43:18.489Z,23.3
2018-09-23T05:44:10.473Z,23.3
2018-09-23T05:44:58.359Z,23.3
2018-09-23T05:45:49.297Z,23.3
2018-09-23T05:46:38.694Z,23.3
2018-09-23T05:47:28.476Z,23.3
2018-09-23T05:48:18.829Z,23.3
2018-09-23T05:49:09.474Z,23.3
2018-09-23T05:49:59.816Z,23.3
2018-09-23T05:50:49.877Z,23.3
2018-09-23T05:51:40.462Z,23.3
2018-09-23T05:52:30.029Z,23.3
2018-09-23T05:53:20.911Z,23.3
2018-09-23T05:54:10.170Z,23.3
2018-09-23T05:54:59.750Z,23.3
2018-09-23T05:55:50.244Z,23.3
2018-09-23T05:56:39.409Z,23.3
2018-09-23T05:57:29.788Z,23.3
2018-09-23T05:58:20.169Z,23.3
2018-09-23T05:59:09.936Z,23.3
2018-09-23T06:00:00.348Z,23.3
2018-09-23T06:00:50.390Z,23.3
2018-09-23T06:01:40.432Z,23.3
2018-09-23T06:02:30.778Z,23.3
2018-09-23T06:03:21.559Z,23.3
2018-09-23T06:04:10.608Z,23.3
2018-09-23T06:05:00.649Z,23.3
2018-09-23T06:05:50.546Z,23.3
2018-09-23T06:06:40.123Z,23.3
2018-09-23T06:07:30.913Z,23.3
2018-09-23T06:08:20.313Z,23.3
2018-09-23T06:09:10.140Z,23.3
2018-09-23T06:10:01.009Z,23.3
2018-09-23T06:10:51.385Z,23.3
2018-09-23T06:11:40.463Z,23.3
2018-09-23T06:12:30.653Z,23.3
2018-09-23T06:13:21.563Z,23.3
2018-09-23T06:14:11.407Z,23.3
2018-09-23T06:15:00.828Z,23.3
2018-09-23T06:15:51.157Z,23.3
2018-09-23T06:16:41.235Z,23.3
2018-09-23T06:17:31.880Z,23.3
2018-09-23T06:18:22.196Z,23.3
2018-09-23T06:19:11.218Z,23.3
2018-09-23T06:20:01.504Z,23.3
2018-09-23T06:20:51.579Z,23.3
2018-09-23T06:21:42.245Z,23.3
2018-09-23T06:22:31.984Z,23.3
2018-09-23T06:23:22.362Z,23.3
2018-09-23T06:24:12.107Z,23.3
2018-09-23T06:25:02.277Z,23.3
2018-09-23T06:25:52.580Z,23.3
2018-09-23T06:26:42.317Z,23.3
2018-09-23T06:27:31.543Z,23.3
2018-09-23T06:28:22.699Z,23.3
2018-09-23T06:29:12.482Z,23.3
2018-09-23T06:30:02.565Z,23.3
2018-09-23T06:30:52.931Z,23.3
2018-09-23T06:31:41.993Z,23.3
2018-09-23T06:32:33.279Z,23.3
2018-09-23T06:33:22.233Z,23.3
2018-09-23T06:34:14.586Z,23.3
2018-09-23T06:35:03.210Z,23.3
2018-09-23T06:35:53.263Z,23.3
2018-09-23T06:36:42.821Z,23.3
2018-09-23T06:37:33.368Z,23.3
2018-09-23T06:38:22.909Z,23.3
2018-09-23T06:39:13.526Z,23.3
2018-09-23T06:40:03.040Z,23.3
2018-09-23T06:40:53.664Z,23.3
2018-09-23T06:41:43.169Z,23.3
2018-09-23T06:42:33.876Z,23.3
2018-09-23T06:43:23.364Z,23.3
2018-09-23T06:44:13.733Z,23.3
2018-09-23T06:45:03.442Z,23.3
2018-09-23T06:45:54.990Z,23.3
2018-09-23T06:46:43.831Z,23.3
2018-09-23T06:47:33.783Z,23.3
2018-09-23T06:48:24.081Z,23.3
2018-09-23T06:49:14.287Z,23.3
2018-09-23T06:50:04.349Z,23.3
2018-09-23T06:50:53.536Z,23.3
2018-09-23T06:51:45.006Z,23.3
2018-09-23T06:52:34.296Z,23.3
2018-09-23T06:53:24.091Z,23.3
2018-09-23T06:54:14.413Z,23.3
2018-09-23T06:55:04.425Z,23.3
2018-09-23T06:55:54.515Z,23.3
2018-09-23T06:56:45.317Z,23.3
2018-09-23T06:57:34.388Z,23.3
2018-09-23T06:58:24.673Z,23.3
2018-09-23T06:59:14.240Z,23.3
2018-09-23T07:00:04.693Z,23.3
2018-09-23T07:00:54.683Z,23.3
2018-09-23T07:01:45.027Z,23.3
2018-09-23T07:02:35.515Z,23.3
2018-09-23T07:03:25.050Z,23.3
2018-09-23T07:04:14.705Z,23.3
2018-09-23T07:05:06.302Z,23.3
2018-09-23T07:05:54.972Z,23.3
2018-09-23T07:06:45.599Z,23.3
2018-09-23T07:07:35.441Z,23.3
2018-09-23T07:08:25.446Z,23.3
2018-09-23T07:09:15.470Z,23.3
2018-09-23T07:10:05.354Z,23.3
2018-09-23T07:10:55.439Z,23.3
2018-09-23T07:11:45.369Z,23.3
2018-09-23T07:12:35.748Z,23.3
2018-09-23T07:13:24.990Z,23.3
2018-09-23T07:14:15.631Z,23.3
2018-09-23T07:15:05.739Z,23.2
2018-09-23T07:15:55.518Z,23.3
2018-09-23T07:16:46.651Z,23.3
2018-09-23T07:17:36.182Z,23.3
2018-09-23T07:18:25.930Z,23.3
2018-09-23T07:19:16.875Z,23.3
2018-09-23T07:20:06.090Z,23.2
2018-09-23T07:20:56.415Z,23.2
2018-09-23T07:21:46.573Z,23.2
2018-09-23T07:22:36.070Z,23.3
2018-09-23T07:23:26.352Z,23.3
2018-09-23T07:24:18.125Z,23.2
2018-09-23T07:25:06.175Z,23.3
2018-09-23T07:25:56.247Z,23.2
2018-09-23T07:26:46.876Z,23.3
2018-09-23T07:27:36.639Z,23.2
2018-09-23T07:28:27.297Z,23.2
2018-09-23T07:29:18.090Z,23.2
2018-09-23T07:30:08.457Z,23.2
2018-09-23T07:30:57.159Z,23.2
2018-09-23T07:31:46.977Z,23.2
2018-09-23T07:32:37.305Z,23.2
2018-09-23T07:33:26.687Z,23.2
2018-09-23T07:34:17.161Z,23.2
2018-09-23T07:35:06.926Z,23.2
2018-09-23T07:35:56.951Z,23.2
2018-09-23T07:36:49.372Z,23.2
2018-09-23T07:37:36.311Z,23.2
2018-09-23T07:38:27.871Z,23.2
2018-09-23T07:39:18.129Z,23.2
2018-09-23T07:40:09.289Z,23.2
2018-09-23T07:40:57.371Z,23.2
2018-09-23T07:41:48.251Z,23.2
2018-09-23T07:42:37.761Z,23.1
2018-09-23T07:43:28.398Z,23.2
2018-09-23T07:44:17.885Z,23.2
2018-09-23T07:45:07.950Z,23.1
2018-09-23T07:45:58.004Z,23.2
2018-09-23T07:46:48.390Z,23.1
2018-09-23T07:47:38.944Z,23.1
2018-09-23T07:48:28.521Z,23.1
2018-09-23T07:49:18.666Z,23.1
2018-09-23T07:50:08.436Z,23.1
2018-09-23T07:50:58.108Z,23.1
2018-09-23T07:51:48.251Z,23.1
2018-09-23T07:52:38.583Z,23.1
2018-09-23T07:53:29.205Z,23.1
2018-09-23T07:54:18.675Z,23.1
2018-09-23T07:55:08.751Z,23.1
2018-09-23T07:55:58.740Z,23.1
2018-09-23T07:56:48.858Z,23.1
2018-09-23T07:57:39.205Z,23.1
2018-09-23T07:58:29.263Z,23.1
2018-09-23T07:59:19.139Z,23.1
2018-09-23T08:00:09.105Z,23.1
2018-09-23T08:00:59.421Z,23.1
2018-09-23T08:01:49.205Z,23.1
2018-09-23T08:02:39.878Z,23.1
2018-09-23T08:03:30.712Z,23.1
2018-09-23T08:04:19.166Z,23.1
2018-09-23T08:05:09.729Z,23.1
2018-09-23T08:06:00.395Z,23.1
2018-09-23T08:06:49.900Z,23.1
2018-09-23T08:07:39.982Z,23.1
2018-09-23T08:08:29.995Z,23.1
2018-09-23T08:09:20.382Z,23.1
2018-09-23T08:10:10.442Z,23.1
2018-09-23T08:11:00.446Z,23.1
2018-09-23T08:11:50.247Z,23.1
2018-09-23T08:12:43.439Z,23.1
2018-09-23T08:13:33.076Z,23.1
2018-09-23T08:14:26.861Z,23.1
2018-09-23T08:15:11.677Z,23.1
2018-09-23T08:16:00.621Z,23.1
2018-09-23T08:16:50.717Z,23.1
2018-09-23T08:17:40.961Z,23.1
2018-09-23T08:18:30.775Z,23.1
2018-09-23T08:19:21.585Z,23.1
2018-09-23T08:20:13.244Z,23.1
2018-09-23T08:21:02.507Z,23.1
2018-09-23T08:21:51.021Z,23.1
2018-09-23T08:22:41.051Z,23.1
2018-09-23T08:23:31.179Z,23.1
2018-09-23T08:24:21.560Z,23.1
2018-09-23T08:25:11.705Z,23.1
2018-09-23T08:26:01.444Z,23.1
2018-09-23T08:26:50.943Z,23.1
2018-09-23T08:27:41.028Z,23.1
2018-09-23T08:28:31.052Z,23.1
2018-09-23T08:29:20.381Z,23.1
2018-09-23T08:30:11.980Z,23.1
2018-09-23T08:31:01.439Z,23.1
2018-09-23T08:31:52.096Z,23.1
2018-09-23T08:32:41.848Z,23.1
2018-09-23T08:33:31.687Z,23.1
2018-09-23T08:34:21.483Z,23.1
2018-09-23T08:35:12.032Z,23.1
2018-09-23T08:36:02.394Z,23.1
2018-09-23T08:36:51.420Z,23.1
2018-09-23T08:37:42.254Z,23.1
2018-09-23T08:38:32.616Z,23.1
2018-09-23T08:39:22.370Z,23.1
2018-09-23T08:40:12.970Z,23.1
2018-09-23T08:41:02.756Z,23.1
2018-09-23T08:41:53.192Z,23.1
2018-09-23T08:42:42.543Z,23.2
2018-09-23T08:43:33.083Z,23.2
2018-09-23T08:44:23.070Z,23.1
2018-09-23T08:45:12.816Z,23.2
2018-09-23T08:46:02.633Z,23.2
2018-09-23T08:46:53.343Z,23.2
2018-09-23T08:47:43.525Z,23.2
2018-09-23T08:48:34.071Z,23.2
2018-09-23T08:49:23.769Z,23.2
2018-09-23T08:50:13.615Z,23.2
2018-09-23T08:51:03.550Z,23.2
2018-09-23T08:51:54.379Z,23.2
2018-09-23T08:52:43.670Z,23.2
2018-09-23T08:53:33.167Z,23.2
2018-09-23T08:54:23.734Z,23.2
2018-09-23T08:55:13.562Z,23.2
2018-09-23T08:56:03.620Z,23.2
2018-09-23T08:56:53.473Z,23.2
2018-09-23T08:57:43.781Z,23.2
2018-09-23T08:58:34.178Z,23.2
2018-09-23T08:59:23.854Z,23.3
2018-09-23T09:00:13.369Z,23.2
2018-09-23T09:01:04.010Z,23.2
2018-09-23T09:01:54.387Z,23.2
2018-09-23T09:02:44.492Z,23.2
2018-09-23T09:03:34.328Z,23.2
2018-09-23T09:04:24.014Z,23.3
2018-09-23T09:05:14.346Z,23.2
2018-09-23T09:06:04.684Z,23.2
2018-09-23T09:06:54.456Z,23.3
2018-09-23T09:07:43.960Z,23.3
2018-09-23T09:08:34.303Z,23.2
2018-09-23T09:09:25.031Z,23.3
2018-09-23T09:10:14.748Z,23.3
2018-09-23T09:11:04.308Z,23.3
2018-09-23T09:11:56.359Z,23.3
2018-09-23T09:12:44.079Z,23.3
2018-09-23T09:13:34.774Z,23.3
2018-09-23T09:14:24.553Z,23.3
2018-09-23T09:15:15.172Z,23.3
2018-09-23T09:16:05.459Z,23.3
2018-09-23T09:16:55.253Z,23.3
2018-09-23T09:17:45.607Z,23.3
2018-09-23T09:18:36.493Z,23.3
2018-09-23T09:19:25.138Z,23.3
2018-09-23T09:20:14.938Z,23.3
2018-09-23T09:21:05.767Z,23.3
2018-09-23T09:21:55.620Z,23.3
2018-09-23T09:22:45.705Z,23.3
2018-09-23T09:39:42.537Z,23.3
2018-09-23T09:40:32.516Z,23.3
2018-09-23T09:41:22.135Z,23.3
2018-09-23T09:42:11.947Z,23.3
2018-09-23T09:43:02.498Z,23.3
2018-09-23T09:43:52.933Z,23.3
2018-09-23T09:44:42.714Z,23.3
2018-09-23T09:45:31.603Z,23.3
2018-09-23T09:46:22.509Z,23.3
2018-09-23T09:47:12.302Z,23.3
2018-09-23T09:48:02.309Z,23.3
2018-09-23T09:48:52.742Z,23.3
2018-09-23T09:49:42.746Z,23.3
2018-09-23T09:50:32.527Z,23.3
2018-09-23T09:51:22.927Z,23.4
2018-09-23T09:52:12.990Z,23.4
2018-09-23T09:53:02.536Z,23.3
2018-09-23T09:53:52.837Z,23.4
2018-09-23T09:54:43.474Z,23.4
2018-09-23T09:55:34.329Z,23.4
2018-09-23T09:56:23.371Z,23.4
2018-09-23T09:57:13.365Z,23.4
2018-09-23T09:58:02.856Z,23.4
2018-09-23T09:58:53.181Z,23.4
2018-09-23T09:59:43.810Z,23.4
2018-09-23T10:00:33.316Z,23.4
2018-09-23T10:01:23.410Z,23.4
2018-09-23T10:02:13.431Z,23.4
2018-09-23T10:03:04.029Z,23.4
2018-09-23T10:03:55.036Z,23.4
2018-09-23T10:04:43.918Z,23.4
2018-09-23T10:05:33.985Z,23.4
2018-09-23T10:06:23.465Z,23.4
2018-09-23T10:07:13.565Z,23.4
2018-09-23T10:08:04.003Z,23.4
2018-09-23T10:08:54.048Z,23.4
2018-09-23T10:09:44.961Z,23.4
2018-09-23T10:10:34.584Z,23.4
2018-09-23T10:11:24.383Z,23.4
2018-09-23T10:12:14.472Z,23.4
2018-09-23T10:13:04.575Z,23.4
2018-09-23T10:13:54.732Z,23.4
2018-09-23T10:14:44.400Z,23.4
2018-09-23T10:15:33.880Z,23.4
2018-09-23T10:16:25.075Z,23.4
2018-09-23T10:17:15.157Z,23.4
2018-09-23T10:18:04.990Z,23.4
2018-09-23T10:18:54.974Z,23.4
2018-09-23T10:19:44.825Z,23.4
2018-09-23T10:20:35.140Z,23.4
2018-09-23T10:21:24.913Z,23.4
2018-09-23T10:22:15.548Z,23.4
2018-09-23T10:23:06.894Z,23.4
2018-09-23T10:23:56.661Z,23.4
2018-09-23T10:24:45.709Z,23.4
2018-09-23T10:25:35.274Z,23.4
2018-09-23T10:26:25.567Z,23.4
2018-09-23T10:27:14.777Z,23.4
2018-09-23T10:28:05.419Z,23.4
2018-09-23T10:28:55.242Z,23.4
2018-09-23T10:29:46.333Z,23.4
2018-09-23T10:30:35.309Z,23.4
2018-09-23T10:31:28.174Z,23.4
2018-09-23T10:32:16.328Z,23.4
2018-09-23T10:33:05.834Z,23.4
2018-09-23T10:33:56.179Z,23.4
2018-09-23T10:34:46.014Z,23.4
2018-09-23T10:35:35.161Z,23.4
2018-09-23T10:36:26.675Z,23.4
2018-09-23T10:37:16.964Z,23.4
2018-09-23T10:38:06.516Z,23.4
2018-09-23T10:38:55.697Z,23.4
2018-09-23T10:39:46.378Z,23.4
2018-09-23T10:40:36.944Z,23.5
2018-09-23T10:41:27.552Z,23.5
2018-09-23T10:42:16.524Z,23.5
2018-09-23T10:43:07.158Z,23.5
2018-09-23T10:43:57.268Z,23.5
2018-09-23T10:44:46.998Z,23.5
2018-09-23T10:45:36.722Z,23.5
2018-09-23T10:46:26.712Z,23.5
2018-09-23T10:47:17.649Z,23.5
2018-09-23T10:48:07.443Z,23.6
2018-09-23T10:48:57.515Z,23.5
2018-09-23T10:49:47.767Z,23.5
2018-09-23T10:50:37.562Z,23.6
2018-09-23T10:51:27.587Z,23.6
2018-09-23T10:52:17.296Z,23.6
2018-09-23T10:53:07.897Z,23.6
2018-09-23T10:53:57.675Z,23.6
2018-09-23T10:54:47.454Z,23.6
2018-09-23T10:55:37.574Z,23.6
2018-09-23T10:56:27.888Z,23.6
2018-09-23T10:57:18.222Z,23.6
2018-09-23T10:58:07.774Z,23.6
2018-09-23T10:58:58.109Z,23.6
2018-09-23T10:59:48.190Z,23.6
2018-09-23T11:00:37.898Z,23.6
2018-09-23T11:01:27.972Z,23.6
2018-09-23T11:02:17.789Z,23.6
2018-09-23T11:03:08.364Z,23.6
2018-09-23T11:03:59.067Z,23.6
2018-09-23T11:04:46.551Z,23.6
2018-09-23T11:05:37.464Z,23.6
2018-09-23T11:06:27.825Z,23.6
2018-09-23T11:07:18.863Z,23.6
2018-09-23T11:08:08.119Z,23.6
2018-09-23T11:08:58.086Z,23.6
2018-09-23T11:09:48.754Z,23.6
2018-09-23T11:10:38.516Z,23.6
2018-09-23T11:11:28.746Z,23.6
2018-09-23T11:12:19.423Z,23.6
2018-09-23T11:13:09.671Z,23.6
2018-09-23T11:13:58.968Z,23.6
2018-09-23T11:14:48.975Z,23.7
2018-09-23T11:15:39.286Z,23.7
2018-09-23T11:16:29.109Z,23.7
2018-09-23T11:17:19.776Z,23.7
2018-09-23T11:18:08.718Z,23.7
2018-09-23T11:18:59.313Z,23.7
2018-09-23T11:19:49.375Z,23.7
2018-09-23T11:20:39.186Z,23.7
2018-09-23T11:21:29.514Z,23.7
2018-09-23T11:22:20.103Z,23.7
2018-09-23T11:23:10.030Z,23.7
2018-09-23T11:23:59.171Z,23.7
2018-09-23T11:24:51.187Z,23.7
2018-09-23T11:25:38.973Z,23.8
2018-09-23T11:26:30.470Z,23.7
2018-09-23T11:27:19.409Z,23.8
2018-09-23T11:28:10.033Z,23.8
2018-09-23T11:29:00.726Z,23.8
2018-09-23T11:29:49.850Z,23.8
2018-09-23T11:30:41.161Z,23.8
2018-09-23T11:31:30.877Z,23.8
2018-09-23T11:32:20.058Z,23.8
2018-09-23T11:33:11.019Z,23.8
2018-09-23T11:34:01.037Z,23.8
2018-09-23T11:34:50.519Z,23.8
2018-09-23T11:35:40.027Z,23.8
2018-09-23T11:36:30.811Z,23.8
2018-09-23T11:37:20.736Z,23.8
2018-09-23T11:38:10.796Z,23.8
2018-09-23T11:39:00.378Z,23.8
2018-09-23T11:39:51.878Z,23.8
2018-09-23T11:40:41.791Z,23.8
2018-09-23T11:41:31.678Z,23.9
2018-09-23T11:42:21.661Z,23.9
2018-09-23T11:43:10.659Z,23.8
2018-09-23T11:44:01.533Z,23.9
2018-09-23T11:44:50.438Z,23.9
2018-09-23T11:45:41.379Z,23.9
2018-09-23T11:46:31.151Z,23.9
2018-09-23T11:47:21.511Z,23.9
2018-09-23T11:48:11.546Z,23.9
2018-09-23T11:49:02.209Z,23.9
2018-09-23T11:49:52.122Z,23.9
2018-09-23T11:50:42.635Z,23.9
2018-09-23T11:51:31.946Z,23.9
2018-09-23T11:52:22.497Z,23.9
2018-09-23T11:53:11.767Z,23.9
2018-09-23T11:54:02.529Z,23.9
2018-09-23T11:54:52.493Z,23.9
2018-09-23T11:55:42.739Z,23.9
2018-09-23T11:56:31.928Z,23.9
2018-09-23T11:57:22.523Z,23.9